createdAt,value
2022-10-23T00:01:16.815Z,25.73
2022-10-23T00:03:44.721Z,31.13
2022-10-23T00:06:13.007Z,23.65
2022-10-23T00:08:40.973Z,24.77
2022-10-23T00:11:10.166Z,32.25
2022-10-23T00:13:37.900Z,26.45
2022-10-23T00:16:05.465Z,24.58
2022-10-23T00:18:32.910Z,34.60
2022-10-23T00:20:59.943Z,34.00
2022-10-23T00:23:26.931Z,23.80
2022-10-23T00:25:53.945Z,27.17
2022-10-23T00:28:21.086Z,21.75
2022-10-23T00:30:48.094Z,21.75
2022-10-23T00:33:15.928Z,19.50
2022-10-23T00:35:43.846Z,24.40
2022-10-23T00:38:11.583Z,20.52
2022-10-23T00:40:39.750Z,20.02
2022-10-23T00:43:07.483Z,15.90
2022-10-23T00:45:35.050Z,10.82
2022-10-23T00:48:03.395Z,14.20
2022-10-23T00:50:33.487Z,19.20
2022-10-23T00:53:03.568Z,17.00
2022-10-23T00:55:32.549Z,13.52
2022-10-23T00:57:59.870Z,10.55
2022-10-23T01:00:30.745Z,14.07
2022-10-23T01:03:00.003Z,17.90
2022-10-23T01:05:39.175Z,21.00
2022-10-23T01:08:17.647Z,12.20
2022-10-23T01:10:53.005Z,12.18
2022-10-23T01:14:18.296Z,8.15
2022-10-23T01:17:10.119Z,11.27
2022-10-23T01:20:19.016Z,20.75
2022-10-23T01:23:21.456Z,14.07
2022-10-23T01:26:33.650Z,19.20
2022-10-23T01:29:29.264Z,22.70
2022-10-23T01:32:09.934Z,20.42
2022-10-23T01:35:11.957Z,26.10
2022-10-23T01:38:05.036Z,17.88
2022-10-23T01:40:48.323Z,20.83
2022-10-23T01:43:21.229Z,17.90
2022-10-23T01:45:54.360Z,24.75
2022-10-23T01:48:28.072Z,21.63
2022-10-23T01:50:59.077Z,18.10
2022-10-23T01:53:30.912Z,23.40
2022-10-23T01:56:01.471Z,29.58
2022-10-23T01:58:31.753Z,22.02
2022-10-23T02:01:03.763Z,34.73
2022-10-23T02:03:34.133Z,25.20
2022-10-23T02:06:01.716Z,33.53
2022-10-23T02:08:29.014Z,32.88
2022-10-23T02:11:08.474Z,25.27
2022-10-23T02:14:18.763Z,37.13
2022-10-23T02:16:51.868Z,39.50
2022-10-23T02:19:54.536Z,31.35
2022-10-23T02:22:31.324Z,35.00
2022-10-23T02:25:11.638Z,33.20
2022-10-23T02:27:54.113Z,38.35
2022-10-23T02:30:24.811Z,32.08
2022-10-23T02:33:06.431Z,41.53
2022-10-23T02:35:33.467Z,38.05
2022-10-23T02:38:33.615Z,28.15
2022-10-23T02:41:15.712Z,35.13
2022-10-23T02:44:42.362Z,35.45
2022-10-23T02:47:58.048Z,38.17
2022-10-23T02:50:57.759Z,38.50
2022-10-23T02:53:48.247Z,29.48
2022-10-23T02:56:58.515Z,30.33
2022-10-23T02:59:52.145Z,34.83
2022-10-23T03:02:26.223Z,38.70
2022-10-23T03:04:56.310Z,30.17
2022-10-23T03:07:26.418Z,29.02
2022-10-23T03:10:05.323Z,26.85
2022-10-23T03:12:33.247Z,31.95
2022-10-23T03:15:00.473Z,26.17
2022-10-23T03:17:27.633Z,29.80
2022-10-23T03:19:58.476Z,21.75
2022-10-23T03:22:25.732Z,22.77
2022-10-23T03:24:52.781Z,20.05
2022-10-23T03:27:19.816Z,19.73
2022-10-23T03:29:46.940Z,17.15
2022-10-23T03:32:15.521Z,14.77
2022-10-23T03:34:42.983Z,17.83
2022-10-23T03:37:10.185Z,14.82
2022-10-23T03:39:37.255Z,14.63
2022-10-23T03:42:04.569Z,20.65
2022-10-23T03:44:32.054Z,10.30
2022-10-23T03:46:59.241Z,16.63
2022-10-23T03:49:26.881Z,17.73
2022-10-23T03:51:54.147Z,18.88
2022-10-23T03:54:26.414Z,19.13
2022-10-23T03:56:56.634Z,18.73
2022-10-23T04:01:51.908Z,17.88
2022-10-23T04:04:19.318Z,11.60
2022-10-23T04:06:46.414Z,13.68
2022-10-23T04:11:45.766Z,20.42
2022-10-23T04:14:14.039Z,9.30
2022-10-23T04:16:41.081Z,11.85
2022-10-23T04:19:08.043Z,12.05
2022-10-23T04:21:35.092Z,14.48
2022-10-23T04:24:02.126Z,10.63
2022-10-23T04:26:29.425Z,19.15
2022-10-23T04:28:56.505Z,11.15
2022-10-23T04:31:23.545Z,8.43
2022-10-23T04:33:50.611Z,12.65
2022-10-23T04:36:31.042Z,11.55
2022-10-23T04:39:04.139Z,14.40
2022-10-23T04:41:31.268Z,10.55
2022-10-23T04:43:58.378Z,11.93
2022-10-23T04:46:25.532Z,11.52
2022-10-23T04:48:52.573Z,10.15
2022-10-23T04:51:38.472Z,11.43
2022-10-23T04:54:25.792Z,12.15
2022-10-23T04:57:11.339Z,11.65
2022-10-23T04:59:54.949Z,8.65
2022-10-23T05:02:22.232Z,17.52
2022-10-23T05:04:50.201Z,8.90
2022-10-23T05:07:36.788Z,9.88
2022-10-23T05:10:14.337Z,9.75
2022-10-23T05:13:07.963Z,9.38
2022-10-23T05:15:35.115Z,13.68
2022-10-23T05:18:10.908Z,10.48
2022-10-23T05:20:40.023Z,13.30
2022-10-23T05:23:13.189Z,11.32
2022-10-23T05:25:42.941Z,12.88
2022-10-23T05:28:16.437Z,9.80
2022-10-23T05:30:43.779Z,12.55
2022-10-23T05:33:11.832Z,9.90
2022-10-23T05:35:44.657Z,11.55
2022-10-23T05:38:15.072Z,11.27
2022-10-23T05:40:43.182Z,8.75
2022-10-23T05:43:15.629Z,13.02
2022-10-23T05:46:05.389Z,8.68
2022-10-23T05:49:04.270Z,7.88
2022-10-23T05:51:40.443Z,10.98
2022-10-23T05:54:27.779Z,10.55
2022-10-23T05:57:15.161Z,11.15
2022-10-23T05:59:48.855Z,10.35
2022-10-23T06:02:47.818Z,8.00
2022-10-23T06:05:30.015Z,15.00
2022-10-23T06:08:21.187Z,11.82
2022-10-23T06:10:50.734Z,12.57
2022-10-23T06:13:18.700Z,11.13
2022-10-23T06:15:45.792Z,11.32
2022-10-23T06:18:21.909Z,13.07
2022-10-23T06:20:55.357Z,11.00
2022-10-23T06:23:25.786Z,13.38
2022-10-23T06:26:24.952Z,11.75
2022-10-23T06:29:14.773Z,17.25
2022-10-23T06:31:43.253Z,10.93
2022-10-23T06:34:12.395Z,11.02
2022-10-23T06:36:39.863Z,10.77
2022-10-23T06:39:32.096Z,12.70
2022-10-23T06:42:17.629Z,10.73
2022-10-23T06:45:17.459Z,13.23
2022-10-23T06:48:04.765Z,11.10
2022-10-23T06:50:50.554Z,11.88
2022-10-23T06:53:25.836Z,11.38
2022-10-23T06:56:05.740Z,19.58
2022-10-23T06:58:36.902Z,7.55
2022-10-23T07:01:14.009Z,10.00
2022-10-23T07:06:11.237Z,9.40
2022-10-23T07:08:39.190Z,9.40
2022-10-23T07:11:23.963Z,8.70
2022-10-23T07:13:51.219Z,9.93
2022-10-23T07:16:23.351Z,8.98
2022-10-23T07:18:59.776Z,10.07
2022-10-23T07:21:46.893Z,9.07
2022-10-23T07:24:25.332Z,15.02
2022-10-23T07:26:57.116Z,15.52
2022-10-23T07:29:27.162Z,7.22
2022-10-23T07:31:54.339Z,9.82
2022-10-23T07:34:50.610Z,11.23
2022-10-23T07:37:25.792Z,13.05
2022-10-23T07:39:53.040Z,6.82
2022-10-23T07:42:20.369Z,8.23
2022-10-23T07:44:48.784Z,11.07
2022-10-23T07:47:15.794Z,8.18
2022-10-23T07:49:47.471Z,7.80
2022-10-23T07:52:14.672Z,12.90
2022-10-23T07:55:04.884Z,8.20
2022-10-23T07:57:34.505Z,8.23
2022-10-23T08:00:19.925Z,11.77
2022-10-23T08:02:56.365Z,8.75
2022-10-23T08:05:23.572Z,6.15
2022-10-23T08:07:57.037Z,6.90
2022-10-23T08:10:24.476Z,9.45
2022-10-23T08:12:51.613Z,9.18
2022-10-23T08:15:22.265Z,8.23
2022-10-23T08:17:57.979Z,9.18
2022-10-23T08:20:43.513Z,7.82
2022-10-23T08:23:16.589Z,8.38
2022-10-23T08:25:44.978Z,5.10
2022-10-23T08:28:13.484Z,6.38
2022-10-23T08:30:51.205Z,8.63
2022-10-23T08:33:18.764Z,6.25
2022-10-23T08:35:46.860Z,8.65
2022-10-23T08:40:48.202Z,8.27
2022-10-23T08:43:50.572Z,8.23
2022-10-23T08:46:42.797Z,7.07
2022-10-23T08:49:45.774Z,6.18
2022-10-23T08:52:32.467Z,9.00
2022-10-23T08:55:35.604Z,8.60
2022-10-23T08:58:25.047Z,9.02
2022-10-23T09:00:52.755Z,6.32
2022-10-23T09:03:20.108Z,5.00
2022-10-23T09:06:12.450Z,9.80
2022-10-23T09:09:22.593Z,7.03
2022-10-23T09:12:07.777Z,6.13
2022-10-23T09:15:31.790Z,11.05
2022-10-23T09:18:12.531Z,6.05
2022-10-23T09:20:40.965Z,3.95
2022-10-23T09:23:17.505Z,4.72
2022-10-23T09:25:47.250Z,7.03
2022-10-23T09:28:22.996Z,8.85
2022-10-23T09:30:52.227Z,8.88
2022-10-23T09:33:24.354Z,7.57
2022-10-23T09:36:22.084Z,5.10
2022-10-23T09:38:50.864Z,5.63
2022-10-23T09:41:21.886Z,6.00
2022-10-23T09:46:57.485Z,4.90
2022-10-23T09:49:27.159Z,4.82
2022-10-23T09:52:22.304Z,5.78
2022-10-23T09:54:53.666Z,4.25
2022-10-23T09:57:29.271Z,3.05
2022-10-23T10:00:00.800Z,3.67
2022-10-23T10:02:30.938Z,12.52
2022-10-23T10:05:38.590Z,3.50
2022-10-23T10:08:54.826Z,4.07
2022-10-23T10:11:54.267Z,7.20
2022-10-23T10:14:52.189Z,3.47
2022-10-23T10:17:40.314Z,2.53
2022-10-23T10:20:59.634Z,3.78
2022-10-23T10:24:12.086Z,3.53
2022-10-23T10:27:13.238Z,2.97
2022-10-23T10:33:02.783Z,3.33
2022-10-23T10:35:53.125Z,5.68
2022-10-23T10:38:50.471Z,5.53
2022-10-23T10:41:55.658Z,3.00
2022-10-23T10:44:50.724Z,2.88
2022-10-23T10:47:25.813Z,6.22
2022-10-23T10:50:30.055Z,4.38
2022-10-23T10:53:42.831Z,4.78
2022-10-23T10:56:14.801Z,7.60
2022-10-23T10:58:54.253Z,4.18
2022-10-23T11:01:37.047Z,3.15
2022-10-23T11:04:33.005Z,3.33
2022-10-23T11:07:07.004Z,2.95
2022-10-23T11:09:34.109Z,3.38
2022-10-23T11:12:01.184Z,3.90
2022-10-23T11:14:33.502Z,7.00
2022-10-23T11:17:09.971Z,6.30
2022-10-23T11:20:29.172Z,3.70
2022-10-23T11:23:33.049Z,3.17
2022-10-23T11:26:25.704Z,4.38
2022-10-23T11:29:20.952Z,3.50
2022-10-23T11:32:35.739Z,4.35
2022-10-23T11:35:35.276Z,4.03
2022-10-23T11:38:30.800Z,6.15
2022-10-23T11:41:01.956Z,9.88
2022-10-23T11:43:50.594Z,4.38
2022-10-23T11:46:43.852Z,2.70
2022-10-23T11:49:21.546Z,5.13
2022-10-23T11:52:00.852Z,3.97
2022-10-23T11:54:28.074Z,3.38
2022-10-23T11:57:13.203Z,4.00
2022-10-23T12:00:01.026Z,3.55
2022-10-23T12:02:41.469Z,4.75
2022-10-23T12:05:27.542Z,5.95
2022-10-23T12:07:58.398Z,2.35
2022-10-23T12:10:35.050Z,3.13
2022-10-23T12:13:04.836Z,4.10
2022-10-23T12:15:35.932Z,6.38
2022-10-23T12:18:14.911Z,6.35
2022-10-23T12:21:02.595Z,5.85
2022-10-23T12:24:03.744Z,2.67
2022-10-23T12:26:50.947Z,3.42
2022-10-23T12:30:01.676Z,4.65
2022-10-23T12:35:28.321Z,4.70
2022-10-23T12:38:10.604Z,4.47
2022-10-23T12:40:37.745Z,7.22
2022-10-23T12:43:30.293Z,6.82
2022-10-23T12:46:20.687Z,3.20
2022-10-23T12:48:49.798Z,4.85
2022-10-23T12:51:23.887Z,3.05
2022-10-23T12:53:51.408Z,4.78
2022-10-23T12:56:19.230Z,4.75
2022-10-23T12:58:51.570Z,3.55
2022-10-23T13:01:28.991Z,3.75
2022-10-23T13:04:13.527Z,2.67
2022-10-23T13:06:40.763Z,8.70
2022-10-23T13:09:22.434Z,4.28
2022-10-23T13:12:20.930Z,5.30
2022-10-23T13:15:03.730Z,3.72
2022-10-23T13:18:03.739Z,4.18
2022-10-23T13:20:35.389Z,6.82
2022-10-23T13:23:33.116Z,4.70
2022-10-23T13:26:07.132Z,3.67
2022-10-23T13:28:42.545Z,4.20
2022-10-23T13:31:36.029Z,3.25
2022-10-23T13:34:15.557Z,4.85
2022-10-23T13:36:53.682Z,3.38
2022-10-23T13:39:30.467Z,2.33
2022-10-23T13:42:01.712Z,4.18
2022-10-23T13:44:29.127Z,2.97
2022-10-23T13:46:56.776Z,5.55
2022-10-23T13:49:23.884Z,3.58
2022-10-23T13:51:56.567Z,3.28
2022-10-23T13:57:00.242Z,3.22
2022-10-23T13:59:27.377Z,4.72
2022-10-23T14:01:54.647Z,3.38
2022-10-23T14:04:21.944Z,3.88
2022-10-23T14:06:48.895Z,3.58
2022-10-23T14:09:18.490Z,4.80
2022-10-23T14:11:45.834Z,3.60
2022-10-23T14:14:13.020Z,4.32
2022-10-23T14:16:40.036Z,6.57
2022-10-23T14:19:08.617Z,6.82
2022-10-23T14:21:35.674Z,8.35
2022-10-23T14:24:02.757Z,3.20
2022-10-23T14:26:30.504Z,4.70
2022-10-23T14:29:02.325Z,4.03
2022-10-23T14:31:33.838Z,11.43
2022-10-23T14:34:02.055Z,7.28
2022-10-23T14:36:38.541Z,4.28
2022-10-23T14:39:16.736Z,7.20
2022-10-23T14:41:44.137Z,5.95
2022-10-23T14:44:11.398Z,6.25
2022-10-23T14:46:38.653Z,6.63
2022-10-23T14:49:06.118Z,7.78
2022-10-23T14:51:33.378Z,5.65
2022-10-23T14:54:02.547Z,4.68
2022-10-23T14:56:31.636Z,6.13
2022-10-23T14:59:03.046Z,7.68
2022-10-23T15:01:36.372Z,4.18
2022-10-23T15:04:04.544Z,6.18
2022-10-23T15:06:32.794Z,2.80
2022-10-23T15:08:59.922Z,5.75
2022-10-23T15:11:27.403Z,3.72
2022-10-23T15:13:55.238Z,3.55
2022-10-23T15:16:23.341Z,3.97
2022-10-23T15:18:51.274Z,5.18
2022-10-23T15:21:19.071Z,6.30
2022-10-23T15:23:46.976Z,8.48
2022-10-23T15:26:23.945Z,5.25
2022-10-23T15:28:56.634Z,5.13
2022-10-23T15:31:43.320Z,4.75
2022-10-23T15:34:22.488Z,2.53
2022-10-23T15:36:50.237Z,2.25
2022-10-23T15:39:23.874Z,3.90
2022-10-23T15:41:52.983Z,3.78
2022-10-23T15:44:24.895Z,3.75
2022-10-23T15:46:52.269Z,4.55
2022-10-23T15:49:19.767Z,6.93
2022-10-23T15:51:47.104Z,4.68
2022-10-23T15:54:19.200Z,4.25
2022-10-23T15:56:48.612Z,6.15
2022-10-23T15:59:15.896Z,3.20
2022-10-23T16:01:43.163Z,4.57
2022-10-23T16:04:10.408Z,11.90
2022-10-23T16:06:37.967Z,8.60
2022-10-23T16:09:05.021Z,8.77
2022-10-23T16:11:35.753Z,17.35
2022-10-23T16:14:04.301Z,11.63
2022-10-23T16:16:32.560Z,14.85
2022-10-23T16:19:01.073Z,7.95
2022-10-23T16:21:31.112Z,7.53
2022-10-23T16:24:00.109Z,7.47
2022-10-23T16:26:27.969Z,7.72
2022-10-23T16:28:56.977Z,7.78
2022-10-23T16:31:24.715Z,10.18
2022-10-23T16:33:53.027Z,7.30
2022-10-23T16:36:20.698Z,8.95
2022-10-23T16:39:18.314Z,7.45
2022-10-23T16:42:04.153Z,7.60
2022-10-23T16:44:43.870Z,5.40
2022-10-23T16:47:10.938Z,8.73
2022-10-23T16:49:37.986Z,6.75
2022-10-23T16:52:05.019Z,5.30
2022-10-23T16:54:31.983Z,4.28
2022-10-23T16:56:59.077Z,4.03
2022-10-23T16:59:25.961Z,9.15
2022-10-23T17:01:53.590Z,11.82
2022-10-23T17:04:20.725Z,4.60
2022-10-23T17:06:47.652Z,11.30
2022-10-23T17:09:15.012Z,10.85
2022-10-23T17:11:44.664Z,7.55
2022-10-23T17:14:15.664Z,8.88
2022-10-23T17:19:32.749Z,11.38
2022-10-23T17:22:01.851Z,7.32
2022-10-23T17:24:28.873Z,6.28
2022-10-23T17:26:56.309Z,10.73
2022-10-23T17:29:23.261Z,12.77
2022-10-23T17:31:51.324Z,11.35
2022-10-23T17:34:22.331Z,11.60
2022-10-23T17:39:21.206Z,8.98
2022-10-23T17:41:48.739Z,7.50
2022-10-23T17:44:16.118Z,6.38
2022-10-23T17:46:43.321Z,7.85
2022-10-23T17:49:10.903Z,8.70
2022-10-23T17:51:38.296Z,7.68
2022-10-23T17:54:09.214Z,5.28
2022-10-23T17:56:38.466Z,5.68
2022-10-23T17:59:12.811Z,6.50
2022-10-23T18:01:39.993Z,3.33
2022-10-23T18:04:08.205Z,4.93
2022-10-23T18:06:40.912Z,6.75
2022-10-23T18:09:08.098Z,4.88
2022-10-23T18:11:38.104Z,5.03
2022-10-23T18:14:06.442Z,11.73
2022-10-23T18:16:34.933Z,4.53
2022-10-23T18:19:02.001Z,6.55
2022-10-23T18:21:29.003Z,4.82
2022-10-23T18:23:58.277Z,5.70
2022-10-23T18:26:28.093Z,5.00
2022-10-23T18:28:57.470Z,5.95
2022-10-23T18:31:25.968Z,5.13
2022-10-23T18:34:01.677Z,7.13
2022-10-23T18:36:32.619Z,6.35
2022-10-23T18:38:59.695Z,7.00
2022-10-23T18:41:27.399Z,7.45
2022-10-23T18:43:54.984Z,5.75
2022-10-23T18:46:22.547Z,8.82
2022-10-23T18:48:50.982Z,5.20
2022-10-23T18:51:21.229Z,7.45
2022-10-23T18:53:49.004Z,4.47
2022-10-23T18:56:22.086Z,4.72
2022-10-23T18:58:51.054Z,4.38
2022-10-23T19:01:19.637Z,4.35
2022-10-23T19:03:46.980Z,5.30
2022-10-23T19:06:14.751Z,3.63
2022-10-23T19:08:43.299Z,4.10
2022-10-23T19:11:11.723Z,4.43
2022-10-23T19:13:39.701Z,9.10
2022-10-23T19:16:18.166Z,10.70
2022-10-23T19:18:53.043Z,6.05
2022-10-23T19:21:22.196Z,4.28
2022-10-23T19:23:49.934Z,8.20
2022-10-23T19:26:17.540Z,7.15
2022-10-23T19:28:47.484Z,7.32
2022-10-23T19:31:14.663Z,9.75
2022-10-23T19:33:41.781Z,9.85
2022-10-23T19:36:13.828Z,6.57
2022-10-23T19:38:42.136Z,7.10
2022-10-23T19:41:09.589Z,8.55
2022-10-23T19:43:37.910Z,17.15
2022-10-23T19:46:09.350Z,18.60
2022-10-23T19:48:42.613Z,17.00
2022-10-23T19:51:09.909Z,9.98
2022-10-23T19:53:37.077Z,14.40
2022-10-23T19:56:08.916Z,12.32
2022-10-23T19:58:35.972Z,14.43
2022-10-23T20:01:16.516Z,10.80
2022-10-23T20:03:45.667Z,11.13
2022-10-23T20:06:14.397Z,15.20
2022-10-23T20:08:41.977Z,6.95
2022-10-23T20:11:10.313Z,12.35
2022-10-23T20:13:37.275Z,11.05
2022-10-23T20:16:04.404Z,6.95
2022-10-23T20:18:31.624Z,6.05
2022-10-23T20:21:02.241Z,8.35
2022-10-23T20:23:29.313Z,8.80
2022-10-23T20:26:04.283Z,9.50
2022-10-23T20:28:31.200Z,17.02
2022-10-23T20:30:58.174Z,7.75
2022-10-23T20:33:25.502Z,7.38
2022-10-23T20:35:52.961Z,8.07
2022-10-23T20:38:20.231Z,8.75
2022-10-23T20:40:47.252Z,6.93
2022-10-23T20:43:14.294Z,6.90
2022-10-23T20:45:41.239Z,9.25
2022-10-23T20:48:08.203Z,6.90
2022-10-23T20:50:35.496Z,7.10
2022-10-23T20:53:02.569Z,8.25
2022-10-23T20:55:29.648Z,10.23
2022-10-23T20:57:56.581Z,11.40
2022-10-23T21:00:23.675Z,9.77
2022-10-23T21:02:52.652Z,9.55
2022-10-23T21:05:19.795Z,13.13
2022-10-23T21:07:46.872Z,9.32
2022-10-23T21:10:13.836Z,8.98
2022-10-23T21:12:40.934Z,10.00
2022-10-23T21:15:09.242Z,9.00
2022-10-23T21:17:38.992Z,10.30
2022-10-23T21:20:06.566Z,10.90
2022-10-23T21:22:33.487Z,10.85
2022-10-23T21:25:01.647Z,10.85
2022-10-23T21:27:28.704Z,8.82
2022-10-23T21:29:55.664Z,11.93
2022-10-23T21:32:22.779Z,10.25
2022-10-23T21:34:49.688Z,10.25
2022-10-23T21:37:16.696Z,10.35
2022-10-23T21:39:44.489Z,16.92
2022-10-23T21:42:13.289Z,11.63
2022-10-23T21:44:40.829Z,15.05
2022-10-23T21:47:07.872Z,13.00
2022-10-23T21:49:34.816Z,11.70
2022-10-23T21:52:01.726Z,11.82
2022-10-23T21:54:28.679Z,13.07
2022-10-23T21:56:55.802Z,12.60
2022-10-23T21:59:27.858Z,12.88
2022-10-23T22:01:57.381Z,10.95
2022-10-23T22:04:24.489Z,8.80
2022-10-23T22:06:51.449Z,11.35
2022-10-23T22:09:20.842Z,14.15
2022-10-23T22:11:54.806Z,11.60
2022-10-23T22:14:22.210Z,9.13
2022-10-23T22:16:49.403Z,12.77
2022-10-23T22:19:17.974Z,15.32
2022-10-23T22:21:45.384Z,21.45
2022-10-23T22:24:12.590Z,12.75
2022-10-23T22:26:42.930Z,12.82
2022-10-23T22:29:12.864Z,16.37
2022-10-23T22:31:44.147Z,15.48
2022-10-23T22:34:26.841Z,14.02
2022-10-23T22:37:04.312Z,14.27
2022-10-23T22:39:31.348Z,25.08
2022-10-23T22:41:58.412Z,17.45
2022-10-23T22:44:25.445Z,21.65
2022-10-23T22:46:52.508Z,13.85
2022-10-23T22:49:19.453Z,12.20
2022-10-23T22:51:46.493Z,10.35
2022-10-23T22:54:13.456Z,13.25
2022-10-23T22:56:40.523Z,9.73
2022-10-23T22:59:07.509Z,11.70
2022-10-23T23:01:36.406Z,19.42
2022-10-23T23:04:19.454Z,10.85
2022-10-23T23:06:50.631Z,13.35
2022-10-23T23:09:18.845Z,13.52
2022-10-23T23:11:51.755Z,10.60
2022-10-23T23:14:24.128Z,13.20
2022-10-23T23:16:53.044Z,10.45
2022-10-23T23:19:22.773Z,14.13
2022-10-23T23:21:49.911Z,9.93
2022-10-23T23:24:16.889Z,12.20
2022-10-23T23:26:43.861Z,11.30
2022-10-23T23:29:11.162Z,12.13
2022-10-23T23:31:38.199Z,9.88
2022-10-23T23:34:05.194Z,13.43
2022-10-23T23:36:32.762Z,9.68
2022-10-23T23:39:00.167Z,7.57
2022-10-23T23:41:28.631Z,10.35
2022-10-23T23:43:57.667Z,7.38
2022-10-23T23:46:25.527Z,13.65
2022-10-23T23:48:52.476Z,10.27
2022-10-23T23:51:24.940Z,10.65
2022-10-23T23:53:52.454Z,8.85
2022-10-23T23:56:20.514Z,12.05
2022-10-23T23:58:47.487Z,10.23
